aviador You're here:

KLPR Decoded Metar

LORAIN/ELYRIA in OH, USA
Report Time2017-10-23 23:53:00
UTC Time2017-10-24 00:25:08
Flight Rules vfr VFR
Wind170° at 12 kt
W.Decomp.*RWY 25: 2.9 kt HW 11.6 kt LCW
W.Rank170° ranks 12
Current wind is above 170° avg. (6.9)
Visibility9999 m
Phenomena:N/A
Clouds:Overcast 095 Hf
Expected CloudBase > 1,600 ft AGL from Temp-Dew spread
Ceiling9,500 ft
Temp15°C (ISA +2)
Dew Point11°C (77% RH)
AAT11.0°C
QNH1002 hPa
Density Alt1,529 ft
Elevation791 ft
Report Wrong Elevation
Raw Report
KLPR 232353Z AUTO 17012KT 10SM OVC095 15/11 A2958 RMK AO2 RAE37
SLP015 P0001 60008 T01500111 10183 20144 58012=

Extra information for KLPR:More info

Metar Taf Metar & Taf Last 4 Metars F.Rules Stats Wind Profile Meteogram Temp Stats Airport Information Weather charts Add Link Nearby VenuesMetar ALERT Operation Metar Decoded Social comments

AIRNAV info for KLPR